Sandra Hugh — WDD9019 — position and weather

sailwx.info

Track history (hours):
 
Tides and Currents Weather Stations Pressure Air Temp Water Temp Dewpoint Dewpoint Depression Visibility Wind Speed Wind Dir Waves Ship Positions

Sandra Hugh

Owner: AMNAV Maritime Corporation, Oakland, CA. More information available from US FCC via Universal Licensing System and Coast Guard Vessel Documentation Center.

Last reported at 2018-Feb-25 01:30 UTC. Time now 2018-Feb-25 01:59 UTC.
Position N 37°48' W 122°21'.

Length 24 m; draft 4.9 m.

Type: Tug. MMSI: 367305920.

Date/timePositionNaut miles runAvg speedWind from/ knotsBaromVisibWave heightAir tempDewpointWater temp
2018-Feb-25 01:30N 37°48' W 122°21'2 3.2
2018-Feb-25 01:00N 37°48' W 122°23'3 6.3
2018-Feb-25 00:30N 37°49' W 122°19'0 0.7
2018-Feb-25 00:00N 37°49' W 122°19'0 0.0
2018-Feb-24 23:30N 37°49' W 122°19'0 0.0
2018-Feb-24 23:01N 37°49' W 122°19'0 0.0
2018-Feb-24 22:31N 37°49' W 122°19'0 0.0
2018-Feb-24 22:00N 37°49' W 122°19'0 0.0
2018-Feb-24 21:30N 37°49' W 122°19'0 0.0
2018-Feb-24 21:01N 37°49' W 122°19'0 0.0
2018-Feb-24 20:30N 37°49' W 122°19'0 0.0
2018-Feb-24 20:00N 37°49' W 122°19'0 0.0
2018-Feb-24 19:31N 37°49' W 122°19'0 0.0
2018-Feb-24 19:01N 37°49' W 122°19'0 0.0
2018-Feb-24 18:30N 37°49' W 122°19'1 2.7
2018-Feb-24 18:01N 37°49' W 122°20'4 7.8
2018-Feb-24 17:31N 37°51' W 122°24'510.5
2018-Feb-24 17:00N 37°56' W 122°26'610.3
2018-Feb-24 16:28N 38°01' W 122°23'5 9.5
2018-Feb-24 15:59N 38°03' W 122°17'5 2.2
2018-Feb-24 13:41N 38°03' W 122°11'2 9.6
2018-Feb-24 13:26N 38°04' W 122°14'3 7.0
2018-Feb-24 13:00N 38°03' W 122°18'3 5.0
2018-Feb-24 12:29N 38°04' W 122°14'5 0.7
2018-Feb-24 04:55N 38°02' W 122°08'0 0.1
2018-Feb-24 00:27N 38°02' W 122°08'4 8.8
2018-Feb-24 00:00N 38°04' W 122°13'5 9.1
2018-Feb-23 23:30N 38°03' W 122°19'5 9.5
2018-Feb-23 23:00N 38°01' W 122°24'5 9.2
2018-Feb-23 22:31N 37°56' W 122°26'5 9.8
2018-Feb-23 22:01N 37°52' W 122°23'4 8.8
2018-Feb-23 21:31N 37°48' W 122°20'2 3.8
2018-Feb-23 21:01N 37°48' W 122°18'0 0.0
2018-Feb-23 20:30N 37°48' W 122°18'0 0.0
2018-Feb-23 20:01N 37°48' W 122°18'0 0.0
2018-Feb-23 19:30N 37°48' W 122°18'0 0.0
2018-Feb-23 19:01N 37°48' W 122°18'0 0.0
2018-Feb-23 18:30N 37°48' W 122°18'0 0.0
2018-Feb-23 18:00N 37°48' W 122°18'0 0.0
2018-Feb-23 17:31N 37°48' W 122°18'0 0.0
2018-Feb-23 17:01N 37°48' W 122°18'0 0.0
2018-Feb-23 16:30N 37°48' W 122°18'0 0.0
2018-Feb-23 16:01N 37°48' W 122°18'0 0.0
2018-Feb-23 15:30N 37°48' W 122°18'0 0.0
2018-Feb-23 15:00N 37°48' W 122°18'0 0.0
2018-Feb-23 14:31N 37°48' W 122°18'1 1.0
2018-Feb-23 14:01N 37°48' W 122°18'1 1.9
2018-Feb-23 13:30N 37°48' W 122°17'1 2.7
2018-Feb-23 13:01N 37°48' W 122°19'3 6.1
2018-Feb-23 12:31N 37°48' W 122°23'2 4.8
2018-Feb-23 12:00N 37°49' W 122°20'1 1.8
2018-Feb-23 11:31N 37°49' W 122°19'0 0.3
2018-Feb-23 11:00N 37°49' W 122°19'0 0.0
2018-Feb-23 10:30N 37°49' W 122°19'0 0.0
2018-Feb-23 10:00N 37°49' W 122°19'0 0.0
2018-Feb-23 09:30N 37°49' W 122°19'0 0.0
2018-Feb-23 09:00N 37°49' W 122°19'0 0.0
2018-Feb-23 08:31N 37°49' W 122°19'0 0.0
2018-Feb-23 08:01N 37°49' W 122°19'0 0.0
2018-Feb-23 07:29N 37°49' W 122°19'0 0.0
2018-Feb-23 07:00N 37°49' W 122°19'0 0.0
2018-Feb-23 06:31N 37°49' W 122°19'0 0.0
2018-Feb-23 06:00N 37°49' W 122°19'0 0.0
2018-Feb-23 05:30N 37°49' W 122°19'0 0.0
2018-Feb-23 05:00N 37°49' W 122°19'0 0.0
2018-Feb-23 04:30N 37°49' W 122°19'0 0.0
2018-Feb-23 04:01N 37°49' W 122°19'0 0.0
2018-Feb-23 03:30N 37°49' W 122°19'0 0.0
2018-Feb-23 03:00N 37°49' W 122°19'0 0.0
2018-Feb-23 02:30N 37°49' W 122°19'0 0.0
2018-Feb-23 02:01N 37°49' W 122°19'1 2.1
2018-Feb-23 01:30N 37°49' W 122°20'0 0.0
2018-Feb-23 00:59N 37°49' W 122°20'0 0.2
2018-Feb-23 00:30N 37°49' W 122°20'1 2.9
2018-Feb-23 00:00N 37°48' W 122°22'2 3.1
2018-Feb-22 23:30N 37°49' W 122°20'0 0.1
2018-Feb-22 23:00N 37°49' W 122°20'1 2.0
2018-Feb-22 22:31N 37°49' W 122°19'0 0.0
2018-Feb-22 21:59N 37°49' W 122°19'0 0.0
2018-Feb-22 21:31N 37°49' W 122°19'0 0.0
2018-Feb-22 21:00N 37°49' W 122°19'0 0.0
2018-Feb-22 20:30N 37°49' W 122°19'0 0.0
2018-Feb-22 20:01N 37°49' W 122°19'0 0.0
2018-Feb-22 19:30N 37°49' W 122°19'0 0.0
2018-Feb-22 19:01N 37°49' W 122°19'0 0.0
2018-Feb-22 18:31N 37°49' W 122°19'0 0.0
2018-Feb-22 17:59N 37°49' W 122°19'0 0.0
2018-Feb-22 17:30N 37°49' W 122°19'0 0.0
2018-Feb-22 17:00N 37°49' W 122°19'0 0.0
2018-Feb-22 16:29N 37°49' W 122°19'0 0.0
2018-Feb-22 16:01N 37°49' W 122°19'0 0.0
2018-Feb-22 15:30N 37°49' W 122°19'0 0.0
2018-Feb-22 15:00N 37°49' W 122°19'0 0.0
2018-Feb-22 14:30N 37°49' W 122°19'0 0.0
2018-Feb-22 14:01N 37°49' W 122°19'0 0.0
2018-Feb-22 13:30N 37°49' W 122°19'0 0.0
2018-Feb-22 13:01N 37°49' W 122°19'0 0.0
2018-Feb-22 12:30N 37°49' W 122°19'2 3.6
2018-Feb-22 12:01N 37°48' W 122°18'1 1.8
2018-Feb-22 11:30N 37°48' W 122°17'0 0.5
2018-Feb-22 11:01N 37°48' W 122°17'0 0.4
2018-Feb-22 10:31N 37°48' W 122°17'0 0.0
2018-Feb-22 10:01N 37°48' W 122°17'0 0.0
2018-Feb-22 09:30N 37°48' W 122°17'0 0.0
2018-Feb-22 09:00N 37°48' W 122°17'0 0.0
2018-Feb-22 08:31N 37°48' W 122°17'0 0.0
2018-Feb-22 08:01N 37°48' W 122°17'0 0.0
2018-Feb-22 07:31N 37°48' W 122°17'0 0.0
2018-Feb-22 07:00N 37°48' W 122°17'0 0.0
2018-Feb-22 06:31N 37°48' W 122°17'0 0.0
2018-Feb-22 06:01N 37°48' W 122°17'0 0.0
2018-Feb-22 05:31N 37°48' W 122°17'0 0.0
2018-Feb-22 05:01N 37°48' W 122°17'0 0.0
2018-Feb-22 04:30N 37°48' W 122°17'0 0.0
2018-Feb-22 04:01N 37°48' W 122°17'1 2.1
2018-Feb-22 03:30N 37°48' W 122°19'1 2.0
2018-Feb-22 03:01N 37°48' W 122°17'2 3.1
2018-Feb-22 02:30N 37°48' W 122°19'3 5.1
2018-Feb-22 02:01N 37°48' W 122°22'2 3.0
2018-Feb-22 01:30N 37°48' W 122°20'0 0.0
2018-Feb-22 01:00N 37°48' W 122°20'0 0.0
2018-Feb-22 00:31N 37°48' W 122°20'2 3.5
2018-Feb-22 00:00N 37°48' W 122°18'0 0.1
2018-Feb-21 23:30N 37°48' W 122°19'0 0.1
2018-Feb-21 23:00N 37°48' W 122°19'0 0.1
2018-Feb-21 22:31N 37°48' W 122°19'2 3.3
2018-Feb-21 22:00N 37°49' W 122°19'0 0.0
2018-Feb-21 21:30N 37°49' W 122°19'0 0.0
2018-Feb-21 21:01N 37°49' W 122°19'0 0.0
2018-Feb-21 20:31N 37°49' W 122°19'0 0.0
2018-Feb-21 20:01N 37°49' W 122°19'0 0.0
2018-Feb-21 19:30N 37°49' W 122°19'0 0.0
2018-Feb-21 19:01N 37°49' W 122°19'0 0.0
2018-Feb-21 18:30N 37°49' W 122°19'0 0.0
2018-Feb-21 18:01N 37°49' W 122°19'0 0.0
2018-Feb-21 17:30N 37°49' W 122°19'0 0.0
2018-Feb-21 17:00N 37°49' W 122°19'0 0.0
2018-Feb-21 16:31N 37°49' W 122°19'0 0.0
2018-Feb-21 16:00N 37°49' W 122°19'0 0.0
2018-Feb-21 15:30N 37°49' W 122°19'0 0.0
2018-Feb-21 15:01N 37°49' W 122°19'1 2.6
2018-Feb-21 14:30N 37°49' W 122°20'2 3.1
2018-Feb-21 14:01N 37°48' W 122°19'1 1.5
2018-Feb-21 13:31N 37°48' W 122°18'0 0.8
2018-Feb-21 13:01N 37°48' W 122°17'2 3.4
2018-Feb-21 12:31N 37°48' W 122°19'2 4.6
2018-Feb-21 12:01N 37°48' W 122°22'3 5.8
2018-Feb-21 11:31N 37°49' W 122°19'0 0.0
2018-Feb-21 11:01N 37°49' W 122°19'0 0.0
2018-Feb-21 10:31N 37°49' W 122°19'0 0.0
2018-Feb-21 10:00N 37°49' W 122°19'0 0.0
2018-Feb-21 09:31N 37°49' W 122°19'0 0.0
2018-Feb-21 09:01N 37°49' W 122°19'0 0.0
2018-Feb-21 08:31N 37°49' W 122°19'0 0.0
2018-Feb-21 08:00N 37°49' W 122°19'0 0.0
2018-Feb-21 07:31N 37°49' W 122°19'0 0.0
2018-Feb-21 07:01N 37°49' W 122°19'0 0.0
2018-Feb-21 06:31N 37°49' W 122°19'0 0.0
2018-Feb-21 06:01N 37°49' W 122°19'0 0.0
2018-Feb-21 05:31N 37°49' W 122°19'0 0.0
2018-Feb-21 05:01N 37°49' W 122°19'0 0.0
2018-Feb-21 04:31N 37°49' W 122°19'0 0.0
2018-Feb-21 04:00N 37°49' W 122°19'0 0.0
2018-Feb-21 03:31N 37°49' W 122°19'0 0.0
2018-Feb-21 03:00N 37°49' W 122°19'0 0.0
2018-Feb-21 02:31N 37°49' W 122°19'0 0.0
2018-Feb-21 02:00N 37°49' W 122°19'1 2.2
2018-Feb-21 01:30N 37°49' W 122°20'0 0.2
2018-Feb-21 01:00N 37°49' W 122°20'0 0.0
2018-Feb-21 00:30N 37°49' W 122°20'1 2.5
2018-Feb-21 00:00N 37°48' W 122°19'1 1.7
2018-Feb-20 23:31N 37°48' W 122°18'0 0.0
2018-Feb-20 23:01N 37°48' W 122°18'1 2.9
2018-Feb-20 22:31N 37°48' W 122°20'2 4.3
2018-Feb-20 22:00N 37°48' W 122°22'3 6.1
2018-Feb-20 21:30N 37°49' W 122°19'0 0.0
2018-Feb-20 21:01N 37°49' W 122°19'0 0.0
2018-Feb-20 20:30N 37°49' W 122°19'0 0.0
2018-Feb-20 20:00N 37°49' W 122°19'0 0.0
2018-Feb-20 19:30N 37°49' W 122°19'0 0.0
2018-Feb-20 19:00N 37°49' W 122°19'0 0.0
2018-Feb-20 18:30N 37°49' W 122°19'0 0.0
2018-Feb-20 18:01N 37°49' W 122°19'0 0.0
2018-Feb-20 17:30N 37°49' W 122°19'0 0.0
2018-Feb-20 17:01N 37°49' W 122°19'0 0.0
2018-Feb-20 16:30N 37°49' W 122°19'0 0.0
2018-Feb-20 16:00N 37°49' W 122°19'0 0.0
2018-Feb-20 15:31N 37°49' W 122°19'0 0.0
2018-Feb-20 15:00N 37°49' W 122°19'0 0.0
2018-Feb-20 14:30N 37°49' W 122°19'0 0.0
2018-Feb-20 14:00N 37°49' W 122°19'0 0.0
2018-Feb-20 13:30N 37°49' W 122°19'0 0.0
2018-Feb-20 13:00N 37°49' W 122°19'2 3.4
2018-Feb-20 12:30N 37°48' W 122°19'0 0.2
2018-Feb-20 12:01N 37°48' W 122°19'0 0.5
2018-Feb-20 11:31N 37°48' W 122°18'0 0.0
2018-Feb-20 11:01N 37°48' W 122°18'0 0.6
2018-Feb-20 10:31N 37°48' W 122°19'1 1.5
2018-Feb-20 10:00N 37°48' W 122°18'0 0.0
2018-Feb-20 09:31N 37°48' W 122°18'1 2.7
2018-Feb-20 09:00N 37°48' W 122°20'2 3.1
2018-Feb-20 08:30N 37°49' W 122°19'0 0.0
2018-Feb-20 08:00N 37°49' W 122°19'0 0.0
2018-Feb-20 07:30N 37°49' W 122°19'0 0.0
2018-Feb-20 07:00N 37°49' W 122°19'0 0.0
2018-Feb-20 06:31N 37°49' W 122°19'0 0.0
2018-Feb-20 06:00N 37°49' W 122°19'0 0.0
2018-Feb-20 05:30N 37°49' W 122°19'0 0.0
2018-Feb-20 04:59N 37°49' W 122°19'0 0.0
2018-Feb-20 04:30N 37°49' W 122°19'1 2.1
2018-Feb-20 04:01N 37°49' W 122°20'0 0.2
2018-Feb-20 03:30N 37°49' W 122°20'2 4.8
2018-Feb-20 03:00N 37°48' W 122°23'3 5.6
2018-Feb-20 02:30N 37°49' W 122°19'1 1.4
2018-Feb-20 02:00N 37°49' W 122°19'0 0.0
2018-Feb-20 01:31N 37°49' W 122°19'0 0.0
2018-Feb-20 01:00N 37°49' W 122°19'0 0.0
2018-Feb-20 00:30N 37°49' W 122°19'0 0.0
2018-Feb-20 00:00N 37°49' W 122°19'0 0.0
2018-Feb-19 23:30N 37°49' W 122°19'0 0.0
2018-Feb-19 23:00N 37°49' W 122°19'0 0.0
2018-Feb-19 22:30N 37°49' W 122°19'0 0.0
2018-Feb-19 22:00N 37°49' W 122°19'0 0.0
2018-Feb-19 21:31N 37°49' W 122°19'0 0.0
2018-Feb-19 21:01N 37°49' W 122°19'0 0.0
2018-Feb-19 20:30N 37°49' W 122°19'0 0.0
2018-Feb-19 20:00N 37°49' W 122°19'0 0.0
2018-Feb-19 19:30N 37°49' W 122°19'0 0.0
2018-Feb-19 19:01N 37°49' W 122°19'0 0.0
2018-Feb-19 18:30N 37°49' W 122°19'0 0.0
2018-Feb-19 18:01N 37°49' W 122°19'0 0.0
2018-Feb-19 17:31N 37°49' W 122°19'0 0.0
2018-Feb-19 17:00N 37°49' W 122°19'0 0.0
2018-Feb-19 16:31N 37°49' W 122°19'0 0.0
2018-Feb-19 16:01N 37°49' W 122°19'0 0.0
2018-Feb-19 15:30N 37°49' W 122°19'0 0.0
2018-Feb-19 15:01N 37°49' W 122°19'0 0.0
2018-Feb-19 14:30N 37°49' W 122°19'0 0.0
2018-Feb-19 14:01N 37°49' W 122°19'2 3.5
2018-Feb-19 13:30N 37°48' W 122°18'1 1.1
2018-Feb-19 13:00N 37°48' W 122°18'1 1.5
2018-Feb-19 12:30N 37°48' W 122°19'3 6.2
2018-Feb-19 12:01N 37°48' W 122°22'1 2.4
2018-Feb-19 11:30N 37°48' W 122°21'1 1.7
2018-Feb-19 11:01N 37°49' W 122°20'0 0.0
2018-Feb-19 10:30N 37°49' W 122°20'0 0.0
2018-Feb-19 10:00N 37°49' W 122°20'0 0.0
2018-Feb-19 09:30N 37°49' W 122°20'0 0.0
2018-Feb-19 09:00N 37°49' W 122°20'0 0.0
2018-Feb-19 08:30N 37°49' W 122°20'0 0.0
2018-Feb-19 08:01N 37°49' W 122°20'0 0.0
2018-Feb-19 07:30N 37°49' W 122°20'0 0.0
2018-Feb-19 07:01N 37°49' W 122°20'0 0.0
2018-Feb-19 06:30N 37°49' W 122°20'0 0.0
2018-Feb-19 06:01N 37°49' W 122°20'0 0.0
2018-Feb-19 05:31N 37°49' W 122°20'0 0.0
2018-Feb-19 05:01N 37°49' W 122°20'1 1.3
2018-Feb-19 04:31N 37°48' W 122°20'1 1.6
2018-Feb-19 04:01N 37°48' W 122°19'1 2.8
2018-Feb-19 03:30N 37°48' W 122°17'1 2.7
2018-Feb-19 03:00N 37°48' W 122°19'2 4.2
2018-Feb-19 02:30N 37°48' W 122°22'2 3.7
2018-Feb-19 02:01N 37°49' W 122°20'1 1.8
2018-Feb-19 01:31N 37°49' W 122°19'0 0.0
2018-Feb-19 01:01N 37°49' W 122°19'0 0.0
2018-Feb-19 00:30N 37°49' W 122°19'0 0.0
2018-Feb-19 00:00N 37°49' W 122°19'0 0.0
2018-Feb-18 23:30N 37°49' W 122°19'0 0.0
2018-Feb-18 23:01N 37°49' W 122°19'0 0.0
2018-Feb-18 22:28N 37°49' W 122°19'0 0.0
2018-Feb-18 22:00N 37°49' W 122°19'0 0.0
2018-Feb-18 21:30N 37°49' W 122°19'0 0.0
2018-Feb-18 21:00N 37°49' W 122°19'0 0.0
2018-Feb-18 20:30N 37°49' W 122°19'0 0.0
2018-Feb-18 20:01N 37°49' W 122°19'0 0.0
2018-Feb-18 19:31N 37°49' W 122°19'0 0.0
2018-Feb-18 19:01N 37°49' W 122°19'0 0.0
2018-Feb-18 18:31N 37°49' W 122°19'0 0.0
2018-Feb-18 18:01N 37°49' W 122°19'0 0.0
2018-Feb-18 17:31N 37°49' W 122°19'0 0.0
2018-Feb-18 17:00N 37°49' W 122°19'0 0.0
2018-Feb-18 16:30N 37°49' W 122°19'0 0.0
2018-Feb-18 16:00N 37°49' W 122°19'0 0.0
2018-Feb-18 15:30N 37°49' W 122°19'0 0.0
2018-Feb-18 15:01N 37°49' W 122°19'0 0.0
2018-Feb-18 14:31N 37°49' W 122°19'0 0.0
2018-Feb-18 14:01N 37°49' W 122°19'0 0.0
2018-Feb-18 13:30N 37°49' W 122°19'0 0.0
2018-Feb-18 13:01N 37°49' W 122°19'0 0.0
2018-Feb-18 12:31N 37°49' W 122°19'0 0.0
2018-Feb-18 12:00N 37°49' W 122°19'0 0.0
2018-Feb-18 11:31N 37°49' W 122°19'0 0.0
2018-Feb-18 11:00N 37°49' W 122°19'0 0.0
2018-Feb-18 10:31N 37°49' W 122°19'0 0.0
2018-Feb-18 10:00N 37°49' W 122°19'0 0.0
2018-Feb-18 09:31N 37°49' W 122°19'0 0.0
2018-Feb-18 09:01N 37°49' W 122°19'0 0.0
2018-Feb-18 08:31N 37°49' W 122°19'0 0.0
2018-Feb-18 08:01N 37°49' W 122°19'0 0.0
2018-Feb-18 07:31N 37°49' W 122°19'0 0.0
2018-Feb-18 07:01N 37°49' W 122°19'0 0.0
2018-Feb-18 06:31N 37°49' W 122°19'0 0.0
2018-Feb-18 06:01N 37°49' W 122°19'0 0.0
2018-Feb-18 05:31N 37°49' W 122°19'0 0.0
2018-Feb-18 05:00N 37°49' W 122°19'0 0.0
2018-Feb-18 04:31N 37°49' W 122°19'0 0.0
2018-Feb-18 04:01N 37°49' W 122°19'0 0.0
2018-Feb-18 03:30N 37°49' W 122°19'0 0.0
2018-Feb-18 03:01N 37°49' W 122°19'0 0.0
2018-Feb-18 02:30N 37°49' W 122°19'0 0.0
2018-Feb-18 02:01N 37°49' W 122°19'0 0.0
2018-Feb-18 01:31N 37°49' W 122°19'0 0.0
2018-Feb-18 01:01N 37°49' W 122°19'0 0.0
2018-Feb-18 00:31N 37°49' W 122°19'0 0.0
2018-Feb-18 00:00N 37°49' W 122°19'0 0.0
2018-Feb-17 23:30N 37°49' W 122°19'0 0.0
2018-Feb-17 23:00N 37°49' W 122°19'0 0.0
2018-Feb-17 22:31N 37°49' W 122°19'0 0.0
2018-Feb-17 22:01N 37°49' W 122°19'0 0.0
2018-Feb-17 21:30N 37°49' W 122°19'0 0.0
2018-Feb-17 21:00N 37°49' W 122°19'0 0.0
2018-Feb-17 20:30N 37°49' W 122°19'0 0.0
2018-Feb-17 20:00N 37°49' W 122°19'0 0.0
2018-Feb-17 19:31N 37°49' W 122°19'0 0.0
2018-Feb-17 19:00N 37°49' W 122°19'0 0.0
2018-Feb-17 18:30N 37°49' W 122°19'0 0.0
2018-Feb-17 18:00N 37°49' W 122°19'0 0.0
2018-Feb-17 17:31N 37°49' W 122°19'0 0.0
2018-Feb-17 17:00N 37°49' W 122°19'2 3.5
2018-Feb-17 16:30N 37°48' W 122°20'1 2.4
2018-Feb-17 16:00N 37°48' W 122°19'1 3.0
2018-Feb-17 15:30N 37°48' W 122°20'2 4.3
2018-Feb-17 15:01N 37°48' W 122°23'1 1.8
2018-Feb-17 14:30N 37°48' W 122°22'4 7.2
2018-Feb-17 14:00N 37°48' W 122°18'1 1.7
2018-Feb-17 13:30N 37°48' W 122°19'0 0.7
2018-Feb-17 13:01N 37°48' W 122°19'0 0.4
2018-Feb-17 12:31N 37°48' W 122°19'2 3.1
2018-Feb-17 12:01N 37°49' W 122°19'0 0.0
2018-Feb-17 11:30N 37°49' W 122°19'0 0.0
2018-Feb-17 11:01N 37°49' W 122°19'0 0.0
2018-Feb-17 10:30N 37°49' W 122°19'0 0.0
2018-Feb-17 10:00N 37°49' W 122°19'0 0.0
2018-Feb-17 09:30N 37°49' W 122°19'0 0.0
2018-Feb-17 09:00N 37°49' W 122°19'0 0.0
2018-Feb-17 08:31N 37°49' W 122°19'0 0.0
2018-Feb-17 08:01N 37°49' W 122°19'0 0.0
2018-Feb-17 07:30N 37°49' W 122°19'0 0.0
2018-Feb-17 07:00N 37°49' W 122°19'0 0.0
2018-Feb-17 06:31N 37°49' W 122°19'0 0.0
2018-Feb-17 06:01N 37°49' W 122°19'0 0.0
2018-Feb-17 05:31N 37°49' W 122°19'0 0.0
2018-Feb-17 05:00N 37°49' W 122°19'0 0.0
2018-Feb-17 04:31N 37°49' W 122°19'0 0.1
2018-Feb-17 04:01N 37°49' W 122°19'2 3.8
2018-Feb-17 03:31N 37°47' W 122°18'0 0.7
2018-Feb-17 03:00N 37°48' W 122°18'1 1.4
2018-Feb-17 02:31N 37°48' W 122°19'2 4.0
2018-Feb-17 02:01N 37°48' W 122°22'2 3.6
2018-Feb-17 01:31N 37°49' W 122°24'3 5.5
2018-Feb-17 01:00N 37°49' W 122°20'1 2.6
2018-Feb-17 00:31N 37°49' W 122°19'0 0.0
2018-Feb-17 00:01N 37°49' W 122°19'0 0.0
2018-Feb-16 23:31N 37°49' W 122°19'0 0.0
2018-Feb-16 23:01N 37°49' W 122°19'0 0.0
2018-Feb-16 22:30N 37°49' W 122°19'0 0.0
2018-Feb-16 22:00N 37°49' W 122°19'0 0.0
2018-Feb-16 21:30N 37°49' W 122°19'0 0.0
2018-Feb-16 21:01N 37°49' W 122°19'0 0.0
2018-Feb-16 20:31N 37°49' W 122°19'0 0.0
2018-Feb-16 20:01N 37°49' W 122°19'0 0.0
2018-Feb-16 19:30N 37°49' W 122°19'0 0.0
2018-Feb-16 19:01N 37°49' W 122°19'0 0.0
2018-Feb-16 18:31N 37°49' W 122°19'0 0.0
2018-Feb-16 18:00N 37°49' W 122°19'0 0.0
2018-Feb-16 17:30N 37°49' W 122°19'0 0.0
2018-Feb-16 16:58N 37°49' W 122°19'0 0.0
2018-Feb-16 16:30N 37°49' W 122°19'0 0.0
2018-Feb-16 16:00N 37°49' W 122°19'0 0.0
2018-Feb-16 15:31N 37°49' W 122°19'0 0.0
2018-Feb-16 15:00N 37°49' W 122°19'0 0.0
2018-Feb-16 14:31N 37°49' W 122°19'0 0.0
2018-Feb-16 14:00N 37°49' W 122°19'0 0.0
2018-Feb-16 13:31N 37°49' W 122°19'0 0.0
2018-Feb-16 13:01N 37°49' W 122°19'0 0.0
2018-Feb-16 12:31N 37°49' W 122°19'0 0.0
2018-Feb-16 12:00N 37°49' W 122°19'0 0.0
2018-Feb-16 11:31N 37°49' W 122°19'0 0.0
2018-Feb-16 11:01N 37°49' W 122°19'0 0.0
2018-Feb-16 10:31N 37°49' W 122°19'0 0.0
2018-Feb-16 10:01N 37°49' W 122°19'2 3.1
2018-Feb-16 09:31N 37°48' W 122°19'0 0.9
2018-Feb-16 09:00N 37°48' W 122°19'1 2.4
2018-Feb-16 08:31N 37°48' W 122°17'2 3.9
2018-Feb-16 08:01N 37°48' W 122°20'1 1.4
2018-Feb-16 07:30N 37°48' W 122°21'0 0.1
2018-Feb-16 07:01N 37°48' W 122°21'0 0.0
2018-Feb-16 06:30N 37°48' W 122°21'0 0.0
2018-Feb-16 06:01N 37°48' W 122°21'0 0.0
2018-Feb-16 05:31N 37°48' W 122°21'0 0.0
2018-Feb-16 05:00N 37°48' W 122°21'0 0.0
2018-Feb-16 04:31N 37°48' W 122°21'0 0.0
2018-Feb-16 04:01N 37°48' W 122°21'0 0.0
2018-Feb-16 03:30N 37°48' W 122°21'0 0.0
2018-Feb-16 03:01N 37°48' W 122°21'0 0.0
2018-Feb-16 02:31N 37°48' W 122°21'0 0.0
2018-Feb-16 02:01N 37°48' W 122°21'0 0.0
2018-Feb-16 01:30N 37°48' W 122°21'0 0.0
2018-Feb-16 01:00N 37°48' W 122°21'0 0.7
2018-Feb-16 00:31N 37°48' W 122°20'2 4.8
2018-Feb-16 00:00N 37°48' W 122°17'2 3.2
2018-Feb-15 23:31N 37°48' W 122°19'1 2.3
2018-Feb-15 23:00N 37°48' W 122°21'2 3.7
2018-Feb-15 22:31N 37°49' W 122°19'0 0.0
2018-Feb-15 22:00N 37°49' W 122°19'0 0.0
2018-Feb-15 21:31N 37°49' W 122°19'0 0.0
2018-Feb-15 21:00N 37°49' W 122°19'0 0.0
2018-Feb-15 20:30N 37°49' W 122°19'0 0.0
2018-Feb-15 20:00N 37°49' W 122°19'0 0.0
2018-Feb-15 19:30N 37°49' W 122°19'0 0.0
2018-Feb-15 19:01N 37°49' W 122°19'0 0.0
2018-Feb-15 18:31N 37°49' W 122°19'0 0.0
2018-Feb-15 18:01N 37°49' W 122°19'0 0.0
2018-Feb-15 17:30N 37°49' W 122°19'0 0.0
2018-Feb-15 17:01N 37°49' W 122°19'0 0.0
2018-Feb-15 16:30N 37°49' W 122°19'0 0.0
2018-Feb-15 16:01N 37°49' W 122°19'0 0.0
2018-Feb-15 15:31N 37°49' W 122°19'0 0.0
2018-Feb-15 15:00N 37°49' W 122°19'0 0.0
2018-Feb-15 14:31N 37°49' W 122°19'0 0.0
2018-Feb-15 14:00N 37°49' W 122°19'2 3.3
2018-Feb-15 13:30N 37°48' W 122°20'1 1.5
2018-Feb-15 13:01N 37°48' W 122°19'0 0.1
2018-Feb-15 12:31N 37°48' W 122°19'1 1.3
2018-Feb-15 12:01N 37°48' W 122°20'2 3.2
2018-Feb-15 11:30N 37°49' W 122°19'0 0.0
2018-Feb-15 11:01N 37°49' W 122°19'0 0.0
2018-Feb-15 10:31N 37°49' W 122°19'0 0.0
2018-Feb-15 10:00N 37°49' W 122°19'0 0.0
2018-Feb-15 09:30N 37°49' W 122°19'0 0.0
2018-Feb-15 09:01N 37°49' W 122°19'0 0.0
2018-Feb-15 08:30N 37°49' W 122°19'0 0.0
2018-Feb-15 08:00N 37°49' W 122°19'0 0.0
2018-Feb-15 07:30N 37°49' W 122°19'0 0.0
2018-Feb-15 07:01N 37°49' W 122°19'0 0.0
2018-Feb-15 06:30N 37°49' W 122°19'0 0.0
2018-Feb-15 06:00N 37°49' W 122°19'0 0.0
2018-Feb-15 05:31N 37°49' W 122°19'0 0.0
2018-Feb-15 05:00N 37°49' W 122°19'0 0.0
2018-Feb-15 04:30N 37°49' W 122°19'0 0.0
2018-Feb-15 04:01N 37°49' W 122°19'0 0.0
2018-Feb-15 03:31N 37°49' W 122°19'0 0.0
2018-Feb-15 03:01N 37°49' W 122°19'0 0.0
2018-Feb-15 02:30N 37°49' W 122°19'0 1.0
2018-Feb-15 02:00N 37°49' W 122°19'3 6.1
2018-Feb-15 01:30N 37°51' W 122°22'  
Track history (hours):
 
Tides and Currents Weather Stations Pressure Air Temp Water Temp Dewpoint Dewpoint Depression Visibility Wind Speed Wind Dir Waves Ship Positions

Sandra Hugh

Owner: AMNAV Maritime Corporation, Oakland, CA. More information available from US FCC via Universal Licensing System and Coast Guard Vessel Documentation Center.

Last reported at 2018-Feb-25 01:30 UTC. Time now 2018-Feb-25 01:59 UTC.
Position N 37°48' W 122°21'.

Length 24 m; draft 4.9 m.

Type: Tug. MMSI: 367305920.

Date/timePositionNaut miles runAvg speedWind from/ knotsBaromVisibWave heightAir tempDewpointWater temp
2018-Feb-25 01:30N 37°48' W 122°21'2 3.2
2018-Feb-25 01:00N 37°48' W 122°23'3 6.3
2018-Feb-25 00:30N 37°49' W 122°19'0 0.7
2018-Feb-25 00:00N 37°49' W 122°19'0 0.0
2018-Feb-24 23:30N 37°49' W 122°19'0 0.0
2018-Feb-24 23:01N 37°49' W 122°19'0 0.0
2018-Feb-24 22:31N 37°49' W 122°19'0 0.0
2018-Feb-24 22:00N 37°49' W 122°19'0 0.0
2018-Feb-24 21:30N 37°49' W 122°19'0 0.0
2018-Feb-24 21:01N 37°49' W 122°19'0 0.0
2018-Feb-24 20:30N 37°49' W 122°19'0 0.0
2018-Feb-24 20:00N 37°49' W 122°19'0 0.0
2018-Feb-24 19:31N 37°49' W 122°19'0 0.0
2018-Feb-24 19:01N 37°49' W 122°19'0 0.0
2018-Feb-24 18:30N 37°49' W 122°19'1 2.7
2018-Feb-24 18:01N 37°49' W 122°20'4 7.8
2018-Feb-24 17:31N 37°51' W 122°24'510.5
2018-Feb-24 17:00N 37°56' W 122°26'610.3
2018-Feb-24 16:28N 38°01' W 122°23'5 9.5
2018-Feb-24 15:59N 38°03' W 122°17'5 2.2
2018-Feb-24 13:41N 38°03' W 122°11'2 9.6
2018-Feb-24 13:26N 38°04' W 122°14'3 7.0
2018-Feb-24 13:00N 38°03' W 122°18'3 5.0
2018-Feb-24 12:29N 38°04' W 122°14'5 0.7
2018-Feb-24 04:55N 38°02' W 122°08'0 0.1
2018-Feb-24 00:27N 38°02' W 122°08'4 8.8
2018-Feb-24 00:00N 38°04' W 122°13'5 9.1
2018-Feb-23 23:30N 38°03' W 122°19'5 9.5
2018-Feb-23 23:00N 38°01' W 122°24'5 9.2
2018-Feb-23 22:31N 37°56' W 122°26'5 9.8
2018-Feb-23 22:01N 37°52' W 122°23'4 8.8
2018-Feb-23 21:31N 37°48' W 122°20'2 3.8
2018-Feb-23 21:01N 37°48' W 122°18'0 0.0
2018-Feb-23 20:30N 37°48' W 122°18'0 0.0
2018-Feb-23 20:01N 37°48' W 122°18'0 0.0
2018-Feb-23 19:30N 37°48' W 122°18'0 0.0
2018-Feb-23 19:01N 37°48' W 122°18'0 0.0
2018-Feb-23 18:30N 37°48' W 122°18'0 0.0
2018-Feb-23 18:00N 37°48' W 122°18'0 0.0
2018-Feb-23 17:31N 37°48' W 122°18'0 0.0
2018-Feb-23 17:01N 37°48' W 122°18'0 0.0
2018-Feb-23 16:30N 37°48' W 122°18'0 0.0
2018-Feb-23 16:01N 37°48' W 122°18'0 0.0
2018-Feb-23 15:30N 37°48' W 122°18'0 0.0
2018-Feb-23 15:00N 37°48' W 122°18'0 0.0
2018-Feb-23 14:31N 37°48' W 122°18'1 1.0
2018-Feb-23 14:01N 37°48' W 122°18'1 1.9
2018-Feb-23 13:30N 37°48' W 122°17'1 2.7
2018-Feb-23 13:01N 37°48' W 122°19'3 6.1
2018-Feb-23 12:31N 37°48' W 122°23'2 4.8
2018-Feb-23 12:00N 37°49' W 122°20'1 1.8
2018-Feb-23 11:31N 37°49' W 122°19'0 0.3
2018-Feb-23 11:00N 37°49' W 122°19'0 0.0
2018-Feb-23 10:30N 37°49' W 122°19'0 0.0
2018-Feb-23 10:00N 37°49' W 122°19'0 0.0
2018-Feb-23 09:30N 37°49' W 122°19'0 0.0
2018-Feb-23 09:00N 37°49' W 122°19'0 0.0
2018-Feb-23 08:31N 37°49' W 122°19'0 0.0
2018-Feb-23 08:01N 37°49' W 122°19'0 0.0
2018-Feb-23 07:29N 37°49' W 122°19'0 0.0
2018-Feb-23 07:00N 37°49' W 122°19'0 0.0
2018-Feb-23 06:31N 37°49' W 122°19'0 0.0
2018-Feb-23 06:00N 37°49' W 122°19'0 0.0
2018-Feb-23 05:30N 37°49' W 122°19'0 0.0
2018-Feb-23 05:00N 37°49' W 122°19'0 0.0
2018-Feb-23 04:30N 37°49' W 122°19'0 0.0
2018-Feb-23 04:01N 37°49' W 122°19'0 0.0
2018-Feb-23 03:30N 37°49' W 122°19'0 0.0
2018-Feb-23 03:00N 37°49' W 122°19'0 0.0
2018-Feb-23 02:30N 37°49' W 122°19'0 0.0
2018-Feb-23 02:01N 37°49' W 122°19'1 2.1
2018-Feb-23 01:30N 37°49' W 122°20'0 0.0
2018-Feb-23 00:59N 37°49' W 122°20'0 0.2
2018-Feb-23 00:30N 37°49' W 122°20'1 2.9
2018-Feb-23 00:00N 37°48' W 122°22'2 3.1
2018-Feb-22 23:30N 37°49' W 122°20'0 0.1
2018-Feb-22 23:00N 37°49' W 122°20'1 2.0
2018-Feb-22 22:31N 37°49' W 122°19'0 0.0
2018-Feb-22 21:59N 37°49' W 122°19'0 0.0
2018-Feb-22 21:31N 37°49' W 122°19'0 0.0
2018-Feb-22 21:00N 37°49' W 122°19'0 0.0
2018-Feb-22 20:30N 37°49' W 122°19'0 0.0
2018-Feb-22 20:01N 37°49' W 122°19'0 0.0
2018-Feb-22 19:30N 37°49' W 122°19'0 0.0
2018-Feb-22 19:01N 37°49' W 122°19'0 0.0
2018-Feb-22 18:31N 37°49' W 122°19'0 0.0
2018-Feb-22 17:59N 37°49' W 122°19'0 0.0
2018-Feb-22 17:30N 37°49' W 122°19'0 0.0
2018-Feb-22 17:00N 37°49' W 122°19'0 0.0
2018-Feb-22 16:29N 37°49' W 122°19'0 0.0
2018-Feb-22 16:01N 37°49' W 122°19'0 0.0
2018-Feb-22 15:30N 37°49' W 122°19'0 0.0
2018-Feb-22 15:00N 37°49' W 122°19'0 0.0
2018-Feb-22 14:30N 37°49' W 122°19'0 0.0
2018-Feb-22 14:01N 37°49' W 122°19'0 0.0
2018-Feb-22 13:30N 37°49' W 122°19'0 0.0
2018-Feb-22 13:01N 37°49' W 122°19'0 0.0
2018-Feb-22 12:30N 37°49' W 122°19'2 3.6
2018-Feb-22 12:01N 37°48' W 122°18'1 1.8
2018-Feb-22 11:30N 37°48' W 122°17'0 0.5
2018-Feb-22 11:01N 37°48' W 122°17'0 0.4
2018-Feb-22 10:31N 37°48' W 122°17'0 0.0
2018-Feb-22 10:01N 37°48' W 122°17'0 0.0
2018-Feb-22 09:30N 37°48' W 122°17'0 0.0
2018-Feb-22 09:00N 37°48' W 122°17'0 0.0
2018-Feb-22 08:31N 37°48' W 122°17'0 0.0
2018-Feb-22 08:01N 37°48' W 122°17'0 0.0
2018-Feb-22 07:31N 37°48' W 122°17'0 0.0
2018-Feb-22 07:00N 37°48' W 122°17'0 0.0
2018-Feb-22 06:31N 37°48' W 122°17'0 0.0
2018-Feb-22 06:01N 37°48' W 122°17'0 0.0
2018-Feb-22 05:31N 37°48' W 122°17'0 0.0
2018-Feb-22 05:01N 37°48' W 122°17'0 0.0
2018-Feb-22 04:30N 37°48' W 122°17'0 0.0
2018-Feb-22 04:01N 37°48' W 122°17'1 2.1
2018-Feb-22 03:30N 37°48' W 122°19'1 2.0
2018-Feb-22 03:01N 37°48' W 122°17'2 3.1
2018-Feb-22 02:30N 37°48' W 122°19'3 5.1
2018-Feb-22 02:01N 37°48' W 122°22'2 3.0
2018-Feb-22 01:30N 37°48' W 122°20'0 0.0
2018-Feb-22 01:00N 37°48' W 122°20'0 0.0
2018-Feb-22 00:31N 37°48' W 122°20'2 3.5
2018-Feb-22 00:00N 37°48' W 122°18'0 0.1
2018-Feb-21 23:30N 37°48' W 122°19'0 0.1
2018-Feb-21 23:00N 37°48' W 122°19'0 0.1
2018-Feb-21 22:31N 37°48' W 122°19'2 3.3
2018-Feb-21 22:00N 37°49' W 122°19'0 0.0
2018-Feb-21 21:30N 37°49' W 122°19'0 0.0
2018-Feb-21 21:01N 37°49' W 122°19'0 0.0
2018-Feb-21 20:31N 37°49' W 122°19'0 0.0
2018-Feb-21 20:01N 37°49' W 122°19'0 0.0
2018-Feb-21 19:30N 37°49' W 122°19'0 0.0
2018-Feb-21 19:01N 37°49' W 122°19'0 0.0
2018-Feb-21 18:30N 37°49' W 122°19'0 0.0
2018-Feb-21 18:01N 37°49' W 122°19'0 0.0
2018-Feb-21 17:30N 37°49' W 122°19'0 0.0
2018-Feb-21 17:00N 37°49' W 122°19'0 0.0
2018-Feb-21 16:31N 37°49' W 122°19'0 0.0
2018-Feb-21 16:00N 37°49' W 122°19'0 0.0
2018-Feb-21 15:30N 37°49' W 122°19'0 0.0
2018-Feb-21 15:01N 37°49' W 122°19'1 2.6
2018-Feb-21 14:30N 37°49' W 122°20'2 3.1
2018-Feb-21 14:01N 37°48' W 122°19'1 1.5
2018-Feb-21 13:31N 37°48' W 122°18'0 0.8
2018-Feb-21 13:01N 37°48' W 122°17'2 3.4
2018-Feb-21 12:31N 37°48' W 122°19'2 4.6
2018-Feb-21 12:01N 37°48' W 122°22'3 5.8
2018-Feb-21 11:31N 37°49' W 122°19'0 0.0
2018-Feb-21 11:01N 37°49' W 122°19'0 0.0
2018-Feb-21 10:31N 37°49' W 122°19'0 0.0
2018-Feb-21 10:00N 37°49' W 122°19'0 0.0
2018-Feb-21 09:31N 37°49' W 122°19'0 0.0
2018-Feb-21 09:01N 37°49' W 122°19'0 0.0
2018-Feb-21 08:31N 37°49' W 122°19'0 0.0
2018-Feb-21 08:00N 37°49' W 122°19'0 0.0
2018-Feb-21 07:31N 37°49' W 122°19'0 0.0
2018-Feb-21 07:01N 37°49' W 122°19'0 0.0
2018-Feb-21 06:31N 37°49' W 122°19'0 0.0
2018-Feb-21 06:01N 37°49' W 122°19'0 0.0
2018-Feb-21 05:31N 37°49' W 122°19'0 0.0
2018-Feb-21 05:01N 37°49' W 122°19'0 0.0
2018-Feb-21 04:31N 37°49' W 122°19'0 0.0
2018-Feb-21 04:00N 37°49' W 122°19'0 0.0
2018-Feb-21 03:31N 37°49' W 122°19'0 0.0
2018-Feb-21 03:00N 37°49' W 122°19'0 0.0
2018-Feb-21 02:31N 37°49' W 122°19'0 0.0
2018-Feb-21 02:00N 37°49' W 122°19'1 2.2
2018-Feb-21 01:30N 37°49' W 122°20'0 0.2
2018-Feb-21 01:00N 37°49' W 122°20'0 0.0
2018-Feb-21 00:30N 37°49' W 122°20'1 2.5
2018-Feb-21 00:00N 37°48' W 122°19'1 1.7
2018-Feb-20 23:31N 37°48' W 122°18'0 0.0
2018-Feb-20 23:01N 37°48' W 122°18'1 2.9
2018-Feb-20 22:31N 37°48' W 122°20'2 4.3
2018-Feb-20 22:00N 37°48' W 122°22'3 6.1
2018-Feb-20 21:30N 37°49' W 122°19'0 0.0
2018-Feb-20 21:01N 37°49' W 122°19'0 0.0
2018-Feb-20 20:30N 37°49' W 122°19'0 0.0
2018-Feb-20 20:00N 37°49' W 122°19'0 0.0
2018-Feb-20 19:30N 37°49' W 122°19'0 0.0
2018-Feb-20 19:00N 37°49' W 122°19'0 0.0
2018-Feb-20 18:30N 37°49' W 122°19'0 0.0
2018-Feb-20 18:01N 37°49' W 122°19'0 0.0
2018-Feb-20 17:30N 37°49' W 122°19'0 0.0
2018-Feb-20 17:01N 37°49' W 122°19'0 0.0
2018-Feb-20 16:30N 37°49' W 122°19'0 0.0
2018-Feb-20 16:00N 37°49' W 122°19'0 0.0
2018-Feb-20 15:31N 37°49' W 122°19'0 0.0
2018-Feb-20 15:00N 37°49' W 122°19'0 0.0
2018-Feb-20 14:30N 37°49' W 122°19'0 0.0
2018-Feb-20 14:00N 37°49' W 122°19'0 0.0
2018-Feb-20 13:30N 37°49' W 122°19'0 0.0
2018-Feb-20 13:00N 37°49' W 122°19'2 3.4
2018-Feb-20 12:30N 37°48' W 122°19'0 0.2
2018-Feb-20 12:01N 37°48' W 122°19'0 0.5
2018-Feb-20 11:31N 37°48' W 122°18'0 0.0
2018-Feb-20 11:01N 37°48' W 122°18'0 0.6
2018-Feb-20 10:31N 37°48' W 122°19'1 1.5
2018-Feb-20 10:00N 37°48' W 122°18'0 0.0
2018-Feb-20 09:31N 37°48' W 122°18'1 2.7
2018-Feb-20 09:00N 37°48' W 122°20'2 3.1
2018-Feb-20 08:30N 37°49' W 122°19'0 0.0
2018-Feb-20 08:00N 37°49' W 122°19'0 0.0
2018-Feb-20 07:30N 37°49' W 122°19'0 0.0
2018-Feb-20 07:00N 37°49' W 122°19'0 0.0
2018-Feb-20 06:31N 37°49' W 122°19'0 0.0
2018-Feb-20 06:00N 37°49' W 122°19'0 0.0
2018-Feb-20 05:30N 37°49' W 122°19'0 0.0
2018-Feb-20 04:59N 37°49' W 122°19'0 0.0
2018-Feb-20 04:30N 37°49' W 122°19'1 2.1
2018-Feb-20 04:01N 37°49' W 122°20'0 0.2
2018-Feb-20 03:30N 37°49' W 122°20'2 4.8
2018-Feb-20 03:00N 37°48' W 122°23'3 5.6
2018-Feb-20 02:30N 37°49' W 122°19'1 1.4
2018-Feb-20 02:00N 37°49' W 122°19'0 0.0
2018-Feb-20 01:31N 37°49' W 122°19'0 0.0
2018-Feb-20 01:00N 37°49' W 122°19'0 0.0
2018-Feb-20 00:30N 37°49' W 122°19'0 0.0
2018-Feb-20 00:00N 37°49' W 122°19'0 0.0
2018-Feb-19 23:30N 37°49' W 122°19'0 0.0
2018-Feb-19 23:00N 37°49' W 122°19'0 0.0
2018-Feb-19 22:30N 37°49' W 122°19'0 0.0
2018-Feb-19 22:00N 37°49' W 122°19'0 0.0
2018-Feb-19 21:31N 37°49' W 122°19'0 0.0
2018-Feb-19 21:01N 37°49' W 122°19'0 0.0
2018-Feb-19 20:30N 37°49' W 122°19'0 0.0
2018-Feb-19 20:00N 37°49' W 122°19'0 0.0
2018-Feb-19 19:30N 37°49' W 122°19'0 0.0
2018-Feb-19 19:01N 37°49' W 122°19'0 0.0
2018-Feb-19 18:30N 37°49' W 122°19'0 0.0
2018-Feb-19 18:01N 37°49' W 122°19'0 0.0
2018-Feb-19 17:31N 37°49' W 122°19'0 0.0
2018-Feb-19 17:00N 37°49' W 122°19'0 0.0
2018-Feb-19 16:31N 37°49' W 122°19'0 0.0
2018-Feb-19 16:01N 37°49' W 122°19'0 0.0
2018-Feb-19 15:30N 37°49' W 122°19'0 0.0
2018-Feb-19 15:01N 37°49' W 122°19'0 0.0
2018-Feb-19 14:30N 37°49' W 122°19'0 0.0
2018-Feb-19 14:01N 37°49' W 122°19'2 3.5
2018-Feb-19 13:30N 37°48' W 122°18'1 1.1
2018-Feb-19 13:00N 37°48' W 122°18'1 1.5
2018-Feb-19 12:30N 37°48' W 122°19'3 6.2
2018-Feb-19 12:01N 37°48' W 122°22'1 2.4
2018-Feb-19 11:30N 37°48' W 122°21'1 1.7
2018-Feb-19 11:01N 37°49' W 122°20'0 0.0
2018-Feb-19 10:30N 37°49' W 122°20'0 0.0
2018-Feb-19 10:00N 37°49' W 122°20'0 0.0
2018-Feb-19 09:30N 37°49' W 122°20'0 0.0
2018-Feb-19 09:00N 37°49' W 122°20'0 0.0
2018-Feb-19 08:30N 37°49' W 122°20'0 0.0
2018-Feb-19 08:01N 37°49' W 122°20'0 0.0
2018-Feb-19 07:30N 37°49' W 122°20'0 0.0
2018-Feb-19 07:01N 37°49' W 122°20'0 0.0
2018-Feb-19 06:30N 37°49' W 122°20'0 0.0
2018-Feb-19 06:01N 37°49' W 122°20'0 0.0
2018-Feb-19 05:31N 37°49' W 122°20'0 0.0
2018-Feb-19 05:01N 37°49' W 122°20'1 1.3
2018-Feb-19 04:31N 37°48' W 122°20'1 1.6
2018-Feb-19 04:01N 37°48' W 122°19'1 2.8
2018-Feb-19 03:30N 37°48' W 122°17'1 2.7
2018-Feb-19 03:00N 37°48' W 122°19'2 4.2
2018-Feb-19 02:30N 37°48' W 122°22'2 3.7
2018-Feb-19 02:01N 37°49' W 122°20'1 1.8
2018-Feb-19 01:31N 37°49' W 122°19'0 0.0
2018-Feb-19 01:01N 37°49' W 122°19'0 0.0
2018-Feb-19 00:30N 37°49' W 122°19'0 0.0
2018-Feb-19 00:00N 37°49' W 122°19'0 0.0
2018-Feb-18 23:30N 37°49' W 122°19'0 0.0
2018-Feb-18 23:01N 37°49' W 122°19'0 0.0
2018-Feb-18 22:28N 37°49' W 122°19'0 0.0
2018-Feb-18 22:00N 37°49' W 122°19'0 0.0
2018-Feb-18 21:30N 37°49' W 122°19'0 0.0
2018-Feb-18 21:00N 37°49' W 122°19'0 0.0
2018-Feb-18 20:30N 37°49' W 122°19'0 0.0
2018-Feb-18 20:01N 37°49' W 122°19'0 0.0
2018-Feb-18 19:31N 37°49' W 122°19'0 0.0
2018-Feb-18 19:01N 37°49' W 122°19'0 0.0
2018-Feb-18 18:31N 37°49' W 122°19'0 0.0
2018-Feb-18 18:01N 37°49' W 122°19'0 0.0
2018-Feb-18 17:31N 37°49' W 122°19'0 0.0
2018-Feb-18 17:00N 37°49' W 122°19'0 0.0
2018-Feb-18 16:30N 37°49' W 122°19'0 0.0
2018-Feb-18 16:00N 37°49' W 122°19'0 0.0
2018-Feb-18 15:30N 37°49' W 122°19'0 0.0
2018-Feb-18 15:01N 37°49' W 122°19'0 0.0
2018-Feb-18 14:31N 37°49' W 122°19'0 0.0
2018-Feb-18 14:01N 37°49' W 122°19'0 0.0
2018-Feb-18 13:30N 37°49' W 122°19'0 0.0
2018-Feb-18 13:01N 37°49' W 122°19'0 0.0
2018-Feb-18 12:31N 37°49' W 122°19'0 0.0
2018-Feb-18 12:00N 37°49' W 122°19'0 0.0
2018-Feb-18 11:31N 37°49' W 122°19'0 0.0
2018-Feb-18 11:00N 37°49' W 122°19'0 0.0
2018-Feb-18 10:31N 37°49' W 122°19'0 0.0
2018-Feb-18 10:00N 37°49' W 122°19'0 0.0
2018-Feb-18 09:31N 37°49' W 122°19'0 0.0
2018-Feb-18 09:01N 37°49' W 122°19'0 0.0
2018-Feb-18 08:31N 37°49' W 122°19'0 0.0
2018-Feb-18 08:01N 37°49' W 122°19'0 0.0
2018-Feb-18 07:31N 37°49' W 122°19'0 0.0
2018-Feb-18 07:01N 37°49' W 122°19'0 0.0
2018-Feb-18 06:31N 37°49' W 122°19'0 0.0
2018-Feb-18 06:01N 37°49' W 122°19'0 0.0
2018-Feb-18 05:31N 37°49' W 122°19'0 0.0
2018-Feb-18 05:00N 37°49' W 122°19'0 0.0
2018-Feb-18 04:31N 37°49' W 122°19'0 0.0
2018-Feb-18 04:01N 37°49' W 122°19'0 0.0
2018-Feb-18 03:30N 37°49' W 122°19'0 0.0
2018-Feb-18 03:01N 37°49' W 122°19'0 0.0
2018-Feb-18 02:30N 37°49' W 122°19'0 0.0
2018-Feb-18 02:01N 37°49' W 122°19'0 0.0
2018-Feb-18 01:31N 37°49' W 122°19'0 0.0
2018-Feb-18 01:01N 37°49' W 122°19'0 0.0
2018-Feb-18 00:31N 37°49' W 122°19'0 0.0
2018-Feb-18 00:00N 37°49' W 122°19'0 0.0
2018-Feb-17 23:30N 37°49' W 122°19'0 0.0
2018-Feb-17 23:00N 37°49' W 122°19'0 0.0
2018-Feb-17 22:31N 37°49' W 122°19'0 0.0
2018-Feb-17 22:01N 37°49' W 122°19'0 0.0
2018-Feb-17 21:30N 37°49' W 122°19'0 0.0
2018-Feb-17 21:00N 37°49' W 122°19'0 0.0
2018-Feb-17 20:30N 37°49' W 122°19'0 0.0
2018-Feb-17 20:00N 37°49' W 122°19'0 0.0
2018-Feb-17 19:31N 37°49' W 122°19'0 0.0
2018-Feb-17 19:00N 37°49' W 122°19'0 0.0
2018-Feb-17 18:30N 37°49' W 122°19'0 0.0
2018-Feb-17 18:00N 37°49' W 122°19'0 0.0
2018-Feb-17 17:31N 37°49' W 122°19'0 0.0
2018-Feb-17 17:00N 37°49' W 122°19'2 3.5
2018-Feb-17 16:30N 37°48' W 122°20'1 2.4
2018-Feb-17 16:00N 37°48' W 122°19'1 3.0
2018-Feb-17 15:30N 37°48' W 122°20'2 4.3
2018-Feb-17 15:01N 37°48' W 122°23'1 1.8
2018-Feb-17 14:30N 37°48' W 122°22'4 7.2
2018-Feb-17 14:00N 37°48' W 122°18'1 1.7
2018-Feb-17 13:30N 37°48' W 122°19'0 0.7
2018-Feb-17 13:01N 37°48' W 122°19'0 0.4
2018-Feb-17 12:31N 37°48' W 122°19'2 3.1
2018-Feb-17 12:01N 37°49' W 122°19'0 0.0
2018-Feb-17 11:30N 37°49' W 122°19'0 0.0
2018-Feb-17 11:01N 37°49' W 122°19'0 0.0
2018-Feb-17 10:30N 37°49' W 122°19'0 0.0
2018-Feb-17 10:00N 37°49' W 122°19'0 0.0
2018-Feb-17 09:30N 37°49' W 122°19'0 0.0
2018-Feb-17 09:00N 37°49' W 122°19'0 0.0
2018-Feb-17 08:31N 37°49' W 122°19'0 0.0
2018-Feb-17 08:01N 37°49' W 122°19'0 0.0
2018-Feb-17 07:30N 37°49' W 122°19'0 0.0
2018-Feb-17 07:00N 37°49' W 122°19'0 0.0
2018-Feb-17 06:31N 37°49' W 122°19'0 0.0
2018-Feb-17 06:01N 37°49' W 122°19'0 0.0
2018-Feb-17 05:31N 37°49' W 122°19'0 0.0
2018-Feb-17 05:00N 37°49' W 122°19'0 0.0
2018-Feb-17 04:31N 37°49' W 122°19'0 0.1
2018-Feb-17 04:01N 37°49' W 122°19'2 3.8
2018-Feb-17 03:31N 37°47' W 122°18'0 0.7
2018-Feb-17 03:00N 37°48' W 122°18'1 1.4
2018-Feb-17 02:31N 37°48' W 122°19'2 4.0
2018-Feb-17 02:01N 37°48' W 122°22'2 3.6
2018-Feb-17 01:31N 37°49' W 122°24'3 5.5
2018-Feb-17 01:00N 37°49' W 122°20'1 2.6
2018-Feb-17 00:31N 37°49' W 122°19'0 0.0
2018-Feb-17 00:01N 37°49' W 122°19'0 0.0
2018-Feb-16 23:31N 37°49' W 122°19'0 0.0
2018-Feb-16 23:01N 37°49' W 122°19'0 0.0
2018-Feb-16 22:30N 37°49' W 122°19'0 0.0
2018-Feb-16 22:00N 37°49' W 122°19'0 0.0
2018-Feb-16 21:30N 37°49' W 122°19'0 0.0
2018-Feb-16 21:01N 37°49' W 122°19'0 0.0
2018-Feb-16 20:31N 37°49' W 122°19'0 0.0
2018-Feb-16 20:01N 37°49' W 122°19'0 0.0
2018-Feb-16 19:30N 37°49' W 122°19'0 0.0
2018-Feb-16 19:01N 37°49' W 122°19'0 0.0
2018-Feb-16 18:31N 37°49' W 122°19'0 0.0
2018-Feb-16 18:00N 37°49' W 122°19'0 0.0
2018-Feb-16 17:30N 37°49' W 122°19'0 0.0
2018-Feb-16 16:58N 37°49' W 122°19'0 0.0
2018-Feb-16 16:30N 37°49' W 122°19'0 0.0
2018-Feb-16 16:00N 37°49' W 122°19'0 0.0
2018-Feb-16 15:31N 37°49' W 122°19'0 0.0
2018-Feb-16 15:00N 37°49' W 122°19'0 0.0
2018-Feb-16 14:31N 37°49' W 122°19'0 0.0
2018-Feb-16 14:00N 37°49' W 122°19'0 0.0
2018-Feb-16 13:31N 37°49' W 122°19'0 0.0
2018-Feb-16 13:01N 37°49' W 122°19'0 0.0
2018-Feb-16 12:31N 37°49' W 122°19'0 0.0
2018-Feb-16 12:00N 37°49' W 122°19'0 0.0
2018-Feb-16 11:31N 37°49' W 122°19'0 0.0
2018-Feb-16 11:01N 37°49' W 122°19'0 0.0
2018-Feb-16 10:31N 37°49' W 122°19'0 0.0
2018-Feb-16 10:01N 37°49' W 122°19'2 3.1
2018-Feb-16 09:31N 37°48' W 122°19'0 0.9
2018-Feb-16 09:00N 37°48' W 122°19'1 2.4
2018-Feb-16 08:31N 37°48' W 122°17'2 3.9
2018-Feb-16 08:01N 37°48' W 122°20'1 1.4
2018-Feb-16 07:30N 37°48' W 122°21'0 0.1
2018-Feb-16 07:01N 37°48' W 122°21'0 0.0
2018-Feb-16 06:30N 37°48' W 122°21'0 0.0
2018-Feb-16 06:01N 37°48' W 122°21'0 0.0
2018-Feb-16 05:31N 37°48' W 122°21'0 0.0
2018-Feb-16 05:00N 37°48' W 122°21'0 0.0
2018-Feb-16 04:31N 37°48' W 122°21'0 0.0
2018-Feb-16 04:01N 37°48' W 122°21'0 0.0
2018-Feb-16 03:30N 37°48' W 122°21'0 0.0
2018-Feb-16 03:01N 37°48' W 122°21'0 0.0
2018-Feb-16 02:31N 37°48' W 122°21'0 0.0
2018-Feb-16 02:01N 37°48' W 122°21'0 0.0
2018-Feb-16 01:30N 37°48' W 122°21'0 0.0
2018-Feb-16 01:00N 37°48' W 122°21'0 0.7
2018-Feb-16 00:31N 37°48' W 122°20'2 4.8
2018-Feb-16 00:00N 37°48' W 122°17'2 3.2
2018-Feb-15 23:31N 37°48' W 122°19'1 2.3
2018-Feb-15 23:00N 37°48' W 122°21'2 3.7
2018-Feb-15 22:31N 37°49' W 122°19'0 0.0
2018-Feb-15 22:00N 37°49' W 122°19'0 0.0
2018-Feb-15 21:31N 37°49' W 122°19'0 0.0
2018-Feb-15 21:00N 37°49' W 122°19'0 0.0
2018-Feb-15 20:30N 37°49' W 122°19'0 0.0
2018-Feb-15 20:00N 37°49' W 122°19'0 0.0
2018-Feb-15 19:30N 37°49' W 122°19'0 0.0
2018-Feb-15 19:01N 37°49' W 122°19'0 0.0
2018-Feb-15 18:31N 37°49' W 122°19'0 0.0
2018-Feb-15 18:01N 37°49' W 122°19'0 0.0
2018-Feb-15 17:30N 37°49' W 122°19'0 0.0
2018-Feb-15 17:01N 37°49' W 122°19'0 0.0
2018-Feb-15 16:30N 37°49' W 122°19'0 0.0
2018-Feb-15 16:01N 37°49' W 122°19'0 0.0
2018-Feb-15 15:31N 37°49' W 122°19'0 0.0
2018-Feb-15 15:00N 37°49' W 122°19'0 0.0
2018-Feb-15 14:31N 37°49' W 122°19'0 0.0
2018-Feb-15 14:00N 37°49' W 122°19'2 3.3
2018-Feb-15 13:30N 37°48' W 122°20'1 1.5
2018-Feb-15 13:01N 37°48' W 122°19'0 0.1
2018-Feb-15 12:31N 37°48' W 122°19'1 1.3
2018-Feb-15 12:01N 37°48' W 122°20'2 3.2
2018-Feb-15 11:30N 37°49' W 122°19'0 0.0
2018-Feb-15 11:01N 37°49' W 122°19'0 0.0
2018-Feb-15 10:31N 37°49' W 122°19'0 0.0
2018-Feb-15 10:00N 37°49' W 122°19'0 0.0
2018-Feb-15 09:30N 37°49' W 122°19'0 0.0
2018-Feb-15 09:01N 37°49' W 122°19'0 0.0
2018-Feb-15 08:30N 37°49' W 122°19'0 0.0
2018-Feb-15 08:00N 37°49' W 122°19'0 0.0
2018-Feb-15 07:30N 37°49' W 122°19'0 0.0
2018-Feb-15 07:01N 37°49' W 122°19'0 0.0
2018-Feb-15 06:30N 37°49' W 122°19'0 0.0
2018-Feb-15 06:00N 37°49' W 122°19'0 0.0
2018-Feb-15 05:31N 37°49' W 122°19'0 0.0
2018-Feb-15 05:00N 37°49' W 122°19'0 0.0
2018-Feb-15 04:30N 37°49' W 122°19'0 0.0
2018-Feb-15 04:01N 37°49' W 122°19'0 0.0
2018-Feb-15 03:31N 37°49' W 122°19'0 0.0
2018-Feb-15 03:01N 37°49' W 122°19'0 0.0
2018-Feb-15 02:30N 37°49' W 122°19'0 1.0
2018-Feb-15 02:00N 37°49' W 122°19'3 6.1
2018-Feb-15 01:30N 37°51' W 122°22'  

Dump ship's entire track history